Time;durP1;ratioP1;P1;durP2;ratioP2;P2;SDS_P1;SDS_P2;PMS_P1;PMS_P2;Temp;Humidity;BMP_temperature;BMP_pressure;BME280_temperature;BME280_humidity;BME280_pressure;Samples;Min_cycle;Max_cycle;Signal;HPM_P1;HPM_P2
2021/09/08 00:02:09;;;;;;;13.70;7.60;;;;;;;8.63;80.84;101327.27;95253;1180;94561;-64
2021/09/08 00:04:17;;;;;;;10.20;7.30;;;;;;;8.61;80.83;101333.41;95265;1180;78927;-61
2021/09/08 00:06:25;;;;;;;11.30;7.00;;;;;;;8.60;80.81;101331.94;95255;1183;80379;-61
2021/09/08 00:08:33;;;;;;;14.80;7.00;;;;;;;8.60;80.83;101332.27;95237;1183;99575;-59
2021/09/08 00:10:41;;;;;;;19.60;8.00;;;;;;;8.58;80.90;101331.55;95282;1183;88452;-61
2021/09/08 00:12:52;;;;;;;12.10;6.80;;;;;;;8.57;80.81;101333.70;95224;1183;93670;-61
2021/09/08 00:15:04;;;;;;;12.20;7.40;;;;;;;8.53;80.87;101332.27;95267;1183;80389;-62
2021/09/08 00:17:11;;;;;;;14.50;7.90;;;;;;;8.51;80.92;101333.71;95309;1183;80614;-61
2021/09/08 00:19:19;;;;;;;16.20;7.80;;;;;;;8.52;81.04;101332.57;95236;1182;97220;-63
2021/09/08 00:21:27;;;;;;;17.70;8.70;;;;;;;8.51;81.06;101332.49;95308;1183;87102;-66
2021/09/08 00:23:34;;;;;;;13.70;7.70;;;;;;;8.51;81.04;101333.55;95272;1183;94140;-65
2021/09/08 00:25:42;;;;;;;14.40;7.60;;;;;;;8.51;81.19;101334.62;95274;1184;78869;-66
2021/09/08 00:27:49;;;;;;;14.00;7.40;;;;;;;8.50;81.18;101335.08;95290;1183;82296;-62
2021/09/08 00:29:57;;;;;;;15.10;7.70;;;;;;;8.48;81.24;101334.89;95242;1183;99672;-64
2021/09/08 00:32:06;;;;;;;11.40;7.50;;;;;;;8.48;81.10;101334.52;95270;1183;88093;-63
2021/09/08 00:34:14;;;;;;;15.10;8.10;;;;;;;8.49;81.18;101336.59;95257;1180;94084;-59
2021/09/08 00:36:21;;;;;;;12.80;7.90;;;;;;;8.48;81.18;101338.02;95235;1183;79402;-61
2021/09/08 00:38:32;;;;;;;13.50;7.50;;;;;;;8.46;81.13;101339.96;95257;1184;81216;-65
2021/09/08 00:40:43;;;;;;;11.80;7.50;;;;;;;8.43;81.25;101344.02;95237;1183;97228;-64
2021/09/08 00:42:54;;;;;;;13.30;7.40;;;;;;;8.41;81.34;101340.80;95260;1183;85525;-61
2021/09/08 00:45:01;;;;;;;12.80;7.00;;;;;;;8.40;81.15;101342.41;95211;1183;93568;-60
2021/09/08 00:47:15;;;;;;;12.50;7.50;;;;;;;8.38;81.39;101343.31;95199;1183;78855;-61
2021/09/08 00:49:23;;;;;;;10.30;6.60;;;;;;;8.35;81.46;101338.73;95217;1183;80327;-59
2021/09/08 00:51:30;;;;;;;15.20;7.20;;;;;;;8.32;81.52;101341.41;95204;1183;97316;-61
2021/09/08 00:53:39;;;;;;;14.70;7.30;;;;;;;8.29;81.31;101338.98;95196;1182;87804;-63
2021/09/08 00:55:50;;;;;;;12.80;7.60;;;;;;;8.26;81.37;101337.86;95264;1181;95281;-63
2021/09/08 00:57:57;;;;;;;13.40;7.40;;;;;;;8.25;81.33;101340.46;95261;1184;80445;-62
2021/09/08 01:00:08;;;;;;;11.90;7.30;;;;;;;8.23;81.45;101341.55;95251;1182;81941;-64
2021/09/08 01:02:16;;;;;;;10.50;7.00;;;;;;;8.22;81.39;101343.96;95302;1183;98791;-63
2021/09/08 01:04:23;;;;;;;14.90;8.70;;;;;;;8.19;81.48;101340.82;95271;1180;88314;-59
2021/09/08 01:06:31;;;;;;;15.40;7.90;;;;;;;8.16;81.47;101343.83;95258;1183;93664;-60
2021/09/08 01:08:39;;;;;;;12.50;6.80;;;;;;;8.15;81.25;101339.14;95268;1181;80014;-60
2021/09/08 01:10:50;;;;;;;12.30;7.00;;;;;;;8.12;81.43;101337.43;95279;1183;80580;-61
2021/09/08 01:12:58;;;;;;;13.30;7.00;;;;;;;8.11;81.34;101332.19;95274;1181;98800;-60
2021/09/08 01:15:07;;;;;;;10.80;7.20;;;;;;;8.09;81.34;101334.89;95218;1183;87356;-59
2021/09/08 01:17:17;;;;;;;12.50;6.50;;;;;;;8.06;81.48;101336.21;95295;1183;93073;-60
2021/09/08 01:19:26;;;;;;;11.20;6.40;;;;;;;8.03;81.48;101337.56;95244;1184;80555;-64
2021/09/08 01:21:33;;;;;;;9.30;6.50;;;;;;;8.01;81.54;101339.02;95305;1182;81080;-64
2021/09/08 01:23:41;;;;;;;8.40;6.10;;;;;;;8.02;81.46;101336.60;95243;1183;98541;-64
2021/09/08 01:25:49;;;;;;;12.80;6.70;;;;;;;8.02;81.46;101335.36;95275;1184;87952;-64
2021/09/08 01:27:57;;;;;;;16.60;7.10;;;;;;;8.02;81.67;101332.30;95237;1183;93485;-62
2021/09/08 01:30:10;;;;;;;11.50;6.90;;;;;;;8.02;81.79;101330.35;95246;1180;80051;-60
2021/09/08 01:32:17;;;;;;;13.20;6.60;;;;;;;8.00;81.76;101330.73;95286;1183;81991;-61
2021/09/08 01:34:25;;;;;;;11.50;7.60;;;;;;;8.01;81.70;101332.25;95222;1184;98389;-64
2021/09/08 01:36:39;;;;;;;13.70;7.00;;;;;;;8.03;81.75;101331.91;95280;1181;86509;-65
2021/09/08 01:38:49;;;;;;;11.60;7.70;;;;;;;8.03;81.84;101332.27;95267;1182;92738;-64
2021/09/08 01:40:56;;;;;;;12.80;7.50;;;;;;;8.01;81.87;101327.61;95219;1184;80204;-65
2021/09/08 01:43:07;;;;;;;10.40;7.00;;;;;;;7.99;81.90;101327.11;95261;1183;82843;-61
2021/09/08 01:45:19;;;;;;;9.90;7.60;;;;;;;7.97;81.97;101331.95;95208;1184;99050;-61
2021/09/08 01:47:27;;;;;;;11.30;7.80;;;;;;;7.97;81.91;101331.25;95256;1184;86787;-61
2021/09/08 01:49:34;;;;;;;14.10;7.60;;;;;;;7.95;82.00;101331.73;95268;1184;93764;-64
2021/09/08 01:51:42;;;;;;;14.50;8.20;;;;;;;7.93;82.04;101332.13;95259;1183;79460;-64
2021/09/08 01:53:49;;;;;;;18.80;8.20;;;;;;;7.92;81.93;101334.63;95261;1180;82174;-61
2021/09/08 01:55:57;;;;;;;15.40;7.90;;;;;;;7.89;81.94;101335.02;95254;1183;98597;-61
2021/09/08 01:58:04;;;;;;;11.90;6.80;;;;;;;7.88;81.88;101337.28;95244;1181;86627;-61
2021/09/08 02:00:16;;;;;;;12.70;7.70;;;;;;;7.86;82.06;101335.19;95245;1184;93853;-61
2021/09/08 02:02:24;;;;;;;10.40;6.70;;;;;;;7.85;81.88;101332.82;95247;1181;79332;-61
2021/09/08 02:04:31;;;;;;;16.30;7.20;;;;;;;7.81;81.92;101332.40;95249;1183;81447;-63
2021/09/08 02:06:51;;;;;;;19.40;7.40;;;;;;;7.79;81.92;101329.82;95276;1184;97403;-63
2021/09/08 02:09:03;;;;;;;15.50;6.70;;;;;;;7.79;82.00;101332.48;95255;1183;86918;-60
2021/09/08 02:11:10;;;;;;;12.10;7.10;;;;;;;7.78;81.99;101338.86;95251;1183;93727;-61
2021/09/08 02:13:18;;;;;;;15.00;7.20;;;;;;;7.75;82.18;101332.67;95234;1183;78824;-62
2021/09/08 02:15:26;;;;;;;12.40;6.70;;;;;;;7.74;82.08;101329.88;95262;1183;81759;-64
2021/09/08 02:17:34;;;;;;;10.30;6.60;;;;;;;7.72;82.15;101326.78;95255;1184;96503;-64
2021/09/08 02:19:41;;;;;;;15.50;7.70;;;;;;;7.69;82.12;101324.42;95229;1180;87588;-65
2021/09/08 02:21:52;;;;;;;12.60;7.00;;;;;;;7.67;82.12;101321.23;95250;1183;93755;-65
2021/09/08 02:24:00;;;;;;;12.60;6.80;;;;;;;7.67;82.41;101321.77;95191;1180;80141;-63
2021/09/08 02:26:07;;;;;;;13.30;7.50;;;;;;;7.66;82.46;101319.11;95277;1184;81361;-64
2021/09/08 02:28:18;;;;;;;14.20;7.60;;;;;;;7.65;82.47;101316.25;95268;1183;99865;-61
2021/09/08 02:30:25;;;;;;;13.50;7.60;;;;;;;7.63;82.26;101319.30;95250;1184;87918;-60
2021/09/08 02:32:33;;;;;;;14.30;8.20;;;;;;;7.62;82.47;101321.71;95240;1183;94616;-61
2021/09/08 02:34:43;;;;;;;13.90;7.40;;;;;;;7.61;82.40;101321.08;95247;1180;81263;-61
2021/09/08 02:36:51;;;;;;;11.20;7.10;;;;;;;7.62;82.48;101322.11;95286;1183;80349;-60
2021/09/08 02:39:00;;;;;;;14.00;7.20;;;;;;;7.57;82.38;101323.59;95229;1184;98061;-60
2021/09/08 02:41:08;;;;;;;14.30;7.30;;;;;;;7.55;82.59;101322.72;95277;1184;88097;-61
2021/09/08 02:43:16;;;;;;;16.20;7.40;;;;;;;7.55;82.40;101320.79;95224;1184;93726;-60
2021/09/08 02:45:23;;;;;;;15.00;7.00;;;;;;;7.54;82.44;101324.31;95260;1182;80916;-60
2021/09/08 02:47:31;;;;;;;11.60;6.30;;;;;;;7.50;82.20;101324.16;95266;1180;81018;-59
2021/09/08 02:49:38;;;;;;;14.40;7.40;;;;;;;7.48;82.40;101323.96;95228;1183;98435;-60
2021/09/08 02:51:49;;;;;;;16.20;8.20;;;;;;;7.48;82.49;101322.91;95247;1183;86986;-60
2021/09/08 02:53:56;;;;;;;15.20;6.70;;;;;;;7.45;82.42;101321.23;95200;1182;93287;-60
2021/09/08 02:56:05;;;;;;;10.30;6.90;;;;;;;7.43;82.42;101320.36;95262;1183;81269;-61
2021/09/08 02:58:12;;;;;;;16.00;7.40;;;;;;;7.43;82.53;101317.82;95269;1180;80993;-61
2021/09/08 03:00:22;;;;;;;14.90;7.80;;;;;;;7.43;82.49;101323.22;95200;1180;97174;-61
2021/09/08 03:02:30;;;;;;;16.00;7.50;;;;;;;7.42;82.61;101325.59;95258;1183;86109;-60
2021/09/08 03:04:37;;;;;;;12.80;7.80;;;;;;;7.41;82.68;101324.62;95227;1184;94007;-60
2021/09/08 03:06:47;;;;;;;15.90;7.60;;;;;;;7.38;82.68;101327.42;95207;1183;80387;-60
2021/09/08 03:08:57;;;;;;;11.80;7.20;;;;;;;7.38;82.75;101329.04;95211;1184;81553;-61
2021/09/08 03:11:05;;;;;;;15.30;7.90;;;;;;;7.38;82.59;101328.35;95264;1180;98715;-61
2021/09/08 03:13:12;;;;;;;17.10;8.20;;;;;;;7.38;82.61;101328.00;95246;1180;87897;-63
2021/09/08 03:15:21;;;;;;;15.90;8.20;;;;;;;7.37;82.63;101331.56;95213;1183;94312;-65
2021/09/08 03:17:31;;;;;;;16.10;7.70;;;;;;;7.35;82.75;101330.08;95220;1183;78672;-66
2021/09/08 03:19:39;;;;;;;12.50;8.00;;;;;;;7.35;82.53;101329.16;95257;1180;81662;-64
2021/09/08 03:21:46;;;;;;;12.30;7.30;;;;;;;7.34;82.62;101327.35;95282;1183;97312;-65
2021/09/08 03:23:55;;;;;;;15.70;7.70;;;;;;;7.29;82.47;101324.16;95261;1180;89070;-64
2021/09/08 03:26:03;;;;;;;13.00;7.50;;;;;;;7.27;82.54;101322.11;95287;1180;94039;-64
2021/09/08 03:28:10;;;;;;;14.80;7.80;;;;;;;7.25;82.69;101321.20;95247;1184;79468;-60
2021/09/08 03:30:18;;;;;;;10.80;7.00;;;;;;;7.22;82.74;101324.55;95242;1183;80026;-61
2021/09/08 03:32:25;;;;;;;13.50;7.70;;;;;;;7.19;82.80;101326.22;95263;1184;98269;-59
2021/09/08 03:34:33;;;;;;;12.00;8.00;;;;;;;7.18;82.93;101318.30;95263;1183;86751;-62
2021/09/08 03:36:40;;;;;;;12.70;7.80;;;;;;;7.16;82.83;101323.09;95221;1183;93890;-60
2021/09/08 03:38:51;;;;;;;15.90;7.60;;;;;;;7.17;82.96;101317.88;95206;1183;78227;-61
2021/09/08 03:40:59;;;;;;;12.90;7.60;;;;;;;7.16;83.01;101319.00;95241;1183;81589;-62
2021/09/08 03:43:09;;;;;;;14.00;8.40;;;;;;;7.15;83.01;101321.05;95214;1182;98877;-64
2021/09/08 03:45:17;;;;;;;13.40;8.50;;;;;;;7.16;82.85;101323.70;95268;1180;89367;-65
2021/09/08 03:47:25;;;;;;;12.70;7.60;;;;;;;7.16;82.88;101326.55;95264;1184;94424;-65
2021/09/08 03:49:32;;;;;;;12.60;8.30;;;;;;;7.18;82.89;101328.63;95224;1180;79254;-60
2021/09/08 03:51:43;;;;;;;11.80;8.50;;;;;;;7.17;82.97;101325.35;95272;1183;80234;-61
2021/09/08 03:53:58;;;;;;;10.60;7.70;;;;;;;7.17;83.11;101327.73;95243;1184;99044;-64
2021/09/08 03:56:06;;;;;;;16.30;8.90;;;;;;;7.18;83.08;101322.75;95237;1183;88338;-64
2021/09/08 03:58:14;;;;;;;17.00;8.90;;;;;;;7.18;82.98;101324.73;95225;1184;92900;-60
2021/09/08 04:00:22;;;;;;;17.00;8.80;;;;;;;7.18;83.06;101325.11;95223;1183;80369;-60
2021/09/08 04:02:30;;;;;;;13.20;8.50;;;;;;;7.17;83.08;101322.48;95268;1183;82353;-61
2021/09/08 04:04:41;;;;;;;15.70;8.30;;;;;;;7.17;82.91;101324.24;95242;1184;98350;-61
2021/09/08 04:06:48;;;;;;;16.10;8.90;;;;;;;7.17;83.07;101324.98;95269;1184;86363;-59
2021/09/08 04:08:56;;;;;;;13.80;8.40;;;;;;;7.18;83.05;101325.80;95220;1184;94044;-61
2021/09/08 04:11:04;;;;;;;16.00;8.50;;;;;;;7.19;83.07;101324.41;95226;1180;81181;-61
2021/09/08 04:13:11;;;;;;;14.80;8.50;;;;;;;7.21;83.11;101323.70;95224;1182;82601;-64
2021/09/08 04:15:22;;;;;;;18.10;9.10;;;;;;;7.23;83.21;101325.48;95235;1184;98194;-65
2021/09/08 04:17:30;;;;;;;16.20;8.20;;;;;;;7.26;83.14;101330.39;95275;1180;88725;-66
2021/09/08 04:19:37;;;;;;;11.90;8.00;;;;;;;7.26;83.33;101325.73;95223;1184;94132;-60
2021/09/08 04:21:45;;;;;;;13.10;8.30;;;;;;;7.27;83.34;101328.16;95251;1184;81081;-60
2021/09/08 04:23:52;;;;;;;14.90;8.00;;;;;;;7.30;83.23;101324.61;95243;1184;81777;-61
2021/09/08 04:26:00;;;;;;;12.80;8.60;;;;;;;7.31;83.19;101321.83;95267;1182;98911;-60
2021/09/08 04:28:13;;;;;;;12.40;8.10;;;;;;;7.35;83.10;101325.42;95279;1184;86558;-65
2021/09/08 04:30:20;;;;;;;14.00;8.80;;;;;;;7.40;83.39;101327.31;95264;1184;93288;-65
2021/09/08 04:32:28;;;;;;;13.70;8.90;;;;;;;7.44;83.35;101327.04;95246;1183;80317;-65
2021/09/08 04:34:36;;;;;;;12.60;7.90;;;;;;;7.50;83.37;101331.48;95235;1180;83175;-62
2021/09/08 04:36:43;;;;;;;13.70;8.30;;;;;;;7.57;83.17;101332.02;95292;1183;97248;-60
2021/09/08 04:38:54;;;;;;;11.80;9.00;;;;;;;7.65;83.15;101328.20;95237;1184;86910;-61
2021/09/08 04:41:01;;;;;;;13.30;8.00;;;;;;;7.74;83.20;101331.67;95226;1183;93966;-62
2021/09/08 04:43:09;;;;;;;12.90;8.30;;;;;;;7.81;83.16;101329.08;95243;1184;79556;-64
2021/09/08 04:45:16;;;;;;;13.50;8.60;;;;;;;7.85;83.29;101327.55;95246;1180;81518;-64
2021/09/08 04:47:24;;;;;;;14.20;7.90;;;;;;;7.94;83.40;101325.91;95284;1180;99045;-65
2021/09/08 04:49:32;;;;;;;12.70;8.20;;;;;;;8.03;83.38;101323.57;95227;1180;87283;-61
2021/09/08 04:51:40;;;;;;;13.50;8.00;;;;;;;8.14;83.30;101324.95;95234;1180;93376;-62
2021/09/08 04:53:48;;;;;;;12.00;8.90;;;;;;;8.22;83.45;101321.90;95220;1184;80052;-66
2021/09/08 04:55:57;;;;;;;10.80;7.70;;;;;;;8.31;83.52;101327.10;95288;1180;82197;-64
2021/09/08 04:58:06;;;;;;;16.40;8.60;;;;;;;8.43;83.49;101329.33;95267;1180;98983;-61
2021/09/08 05:00:16;;;;;;;10.60;7.90;;;;;;;8.54;83.36;101332.02;95223;1180;87973;-61
2021/09/08 05:02:24;;;;;;;11.40;8.60;;;;;;;8.66;83.39;101330.19;95273;1184;93412;-61
2021/09/08 05:04:34;;;;;;;11.90;8.70;;;;;;;8.78;83.46;101326.80;95251;1184;80175;-66
2021/09/08 05:06:42;;;;;;;12.50;9.00;;;;;;;8.90;83.44;101328.31;95288;1180;80107;-66
2021/09/08 05:08:50;;;;;;;16.20;10.10;;;;;;;9.00;83.33;101325.83;95244;1180;99233;-60
2021/09/08 05:11:01;;;;;;;15.10;10.20;;;;;;;9.10;83.36;101326.25;95275;1183;88439;-61
2021/09/08 05:13:09;;;;;;;13.40;9.10;;;;;;;9.24;83.49;101329.31;95255;1180;93798;-65
2021/09/08 05:15:17;;;;;;;13.30;9.00;;;;;;;9.41;83.53;101327.81;95202;1183;78526;-65
2021/09/08 05:17:25;;;;;;;15.90;11.10;;;;;;;9.86;84.18;101327.58;95290;1182;82347;-67
2021/09/08 05:19:32;;;;;;;13.60;9.50;;;;;;;10.84;84.53;101330.23;95215;1182;99919;-60
2021/09/08 05:21:40;;;;;;;12.80;9.00;;;;;;;11.76;84.56;101323.06;95264;1180;88054;-61
2021/09/08 05:23:47;;;;;;;11.60;8.30;;;;;;;12.38;83.50;101322.00;95241;1182;94392;-65
2021/09/08 05:25:55;;;;;;;12.70;8.90;;;;;;;12.50;82.68;101321.33;95286;1182;78808;-64
2021/09/08 05:28:03;;;;;;;11.90;8.10;;;;;;;12.76;82.45;101323.27;95255;1184;81285;-61
2021/09/08 05:30:12;;;;;;;10.10;8.50;;;;;;;12.98;81.50;101319.54;95275;1180;99045;-62
2021/09/08 05:32:19;;;;;;;14.40;8.70;;;;;;;13.06;80.79;101319.27;95278;1183;87144;-60
2021/09/08 05:34:27;;;;;;;12.50;8.90;;;;;;;12.99;80.17;101323.42;95200;1180;94092;-64
2021/09/08 05:36:34;;;;;;;14.60;9.40;;;;;;;12.80;79.90;101319.85;95231;1184;79027;-64
2021/09/08 05:38:42;;;;;;;15.50;10.00;;;;;;;12.74;79.70;101327.52;95243;1180;80266;-60
2021/09/08 05:40:50;;;;;;;14.00;9.90;;;;;;;12.70;79.59;101330.11;95258;1181;98624;-61
2021/09/08 05:43:00;;;;;;;13.00;9.90;;;;;;;12.63;79.51;101330.75;95286;1182;87855;-62
2021/09/08 05:45:10;;;;;;;14.40;9.60;;;;;;;12.57;79.44;101330.02;95273;1180;94908;-61
2021/09/08 05:47:18;;;;;;;13.30;9.70;;;;;;;12.52;79.35;101329.75;95265;1182;79751;-61
2021/09/08 05:49:26;;;;;;;15.10;9.80;;;;;;;12.47;79.40;101329.13;95222;1183;81199;-63
2021/09/08 05:51:34;;;;;;;13.80;9.90;;;;;;;12.56;79.55;101330.15;95259;1183;97632;-65
2021/09/08 05:53:41;;;;;;;14.80;10.40;;;;;;;13.00;79.41;101328.14;95232;1184;87361;-61
2021/09/08 05:55:54;;;;;;;15.90;9.90;;;;;;;13.24;79.03;101328.50;95258;1184;94059;-61
2021/09/08 05:58:02;;;;;;;14.40;9.80;;;;;;;13.60;78.76;101327.23;95222;1184;79505;-61
2021/09/08 06:00:13;;;;;;;12.20;9.80;;;;;;;13.95;78.34;101324.36;95253;1184;81938;-62
2021/09/08 06:02:20;;;;;;;13.40;10.00;;;;;;;14.53;77.68;101320.66;95290;1183;99392;-60
2021/09/08 06:04:28;;;;;;;16.30;11.10;;;;;;;15.66;77.07;101312.05;95248;1184;88210;-65
2021/09/08 06:06:38;;;;;;;15.20;10.80;;;;;;;16.44;75.83;101308.10;95252;1182;92701;-64
2021/09/08 06:08:46;;;;;;;18.40;11.80;;;;;;;16.53;74.98;101311.16;95198;1183;79544;-60
2021/09/08 06:10:53;;;;;;;16.90;10.90;;;;;;;16.17;74.93;101313.61;95209;1184;82238;-65
2021/09/08 06:13:01;;;;;;;16.40;10.80;;;;;;;15.81;75.12;101312.91;95239;1183;99498;-65
2021/09/08 06:15:11;;;;;;;16.30;12.40;;;;;;;15.55;75.30;101312.56;95292;1181;86957;-65
2021/09/08 06:17:22;;;;;;;16.20;12.60;;;;;;;15.34;75.39;101313.81;95265;1184;92894;-75
2021/09/08 06:19:29;;;;;;;17.00;12.00;;;;;;;15.25;75.63;101314.24;95253;1184;77785;-76
2021/09/08 06:21:37;;;;;;;16.00;11.60;;;;;;;15.19;75.71;101319.22;95229;1183;82241;-75
2021/09/08 06:23:44;;;;;;;17.60;12.40;;;;;;;15.17;75.84;101315.82;95242;1183;98421;-69
2021/09/08 06:25:55;;;;;;;17.60;12.40;;;;;;;15.16;75.93;101318.40;95289;1183;86960;-69
2021/09/08 06:28:06;;;;;;;18.70;12.80;;;;;;;15.22;76.14;101320.09;95278;1180;94717;-74
2021/09/08 06:30:15;;;;;;;20.00;13.20;;;;;;;15.34;76.24;101314.56;95219;1183;78194;-76
2021/09/08 06:32:26;;;;;;;19.60;12.70;;;;;;;15.43;76.28;101313.80;95261;1182;80195;-74
2021/09/08 06:34:33;;;;;;;19.10;12.80;;;;;;;15.51;76.26;101312.55;95392;1177;99239;-76
2021/09/08 06:36:44;;;;;;;17.60;12.70;;;;;;;15.62;76.15;101311.30;95272;1181;86951;-77
2021/09/08 06:38:51;;;;;;;20.60;13.30;;;;;;;15.67;75.85;101311.77;95210;1181;93903;-77
2021/09/08 06:41:02;;;;;;;22.50;15.40;;;;;;;15.69;75.64;101312.51;95208;1181;79086;-77
2021/09/08 06:43:10;;;;;;;20.70;14.10;;;;;;;15.86;75.71;101312.67;95249;1181;82742;-76
2021/09/08 06:45:18;;;;;;;19.50;13.00;;;;;;;16.14;75.69;101312.60;95236;1183;96911;-67
2021/09/08 06:47:26;;;;;;;22.60;14.30;;;;;;;16.26;75.07;101318.05;95239;1183;88669;-67
2021/09/08 06:49:34;;;;;;;20.40;14.20;;;;;;;16.32;75.01;101317.27;95167;1183;95507;-69
2021/09/08 06:51:41;;;;;;;20.00;14.00;;;;;;;16.46;75.03;101317.70;95190;1182;80296;-68
2021/09/08 06:53:50;;;;;;;19.20;14.10;;;;;;;16.66;74.74;101317.79;95215;1183;83340;-66
2021/09/08 06:55:57;;;;;;;20.40;13.50;;;;;;;16.73;74.34;101321.29;95193;1182;99625;-76
2021/09/08 06:58:05;;;;;;;21.30;14.40;;;;;;;16.82;74.32;101327.77;95268;1183;88404;-77
2021/09/08 07:00:14;;;;;;;19.50;13.50;;;;;;;16.95;74.24;101331.62;95291;1182;94002;-70
2021/09/08 07:02:25;;;;;;;19.10;14.30;;;;;;;17.41;73.77;101332.56;95226;1181;78775;-69
2021/09/08 07:04:36;;;;;;;20.40;13.30;;;;;;;17.87;73.15;101330.20;95234;1182;81953;-74
2021/09/08 07:06:44;;;;;;;24.00;14.40;;;;;;;17.80;72.68;101329.46;95249;1183;97633;-75
2021/09/08 07:08:52;;;;;;;19.00;14.10;;;;;;;17.64;72.54;101331.25;95258;1183;87506;-74
2021/09/08 07:11:00;;;;;;;18.30;13.90;;;;;;;17.78;72.25;101328.25;95272;1183;92781;-71
2021/09/08 07:13:09;;;;;;;21.30;15.60;;;;;;;17.94;71.40;101329.63;95224;1183;78944;-73
2021/09/08 07:15:17;;;;;;;21.80;13.90;;;;;;;17.85;71.40;101330.15;95279;1183;80948;-65
2021/09/08 07:17:24;;;;;;;23.10;14.30;;;;;;;17.79;71.66;101331.60;95228;1182;99409;-65
2021/09/08 07:19:35;;;;;;;23.00;14.70;;;;;;;17.76;71.83;101330.14;95217;1183;86792;-67
2021/09/08 07:21:42;;;;;;;19.70;13.90;;;;;;;17.78;71.71;101331.05;95232;1183;92796;-67
2021/09/08 07:23:52;;;;;;;20.90;14.20;;;;;;;17.67;71.28;101325.23;95314;1183;79158;-67
2021/09/08 07:26:00;;;;;;;20.20;14.40;;;;;;;17.68;70.72;101324.52;95238;1183;82037;-67
2021/09/08 07:28:09;;;;;;;22.30;14.10;;;;;;;17.89;70.78;101326.33;95244;1183;99177;-67
2021/09/08 07:30:17;;;;;;;18.40;13.90;;;;;;;17.98;70.72;101326.96;95244;1183;87073;-66
2021/09/08 07:32:25;;;;;;;19.50;13.70;;;;;;;18.05;70.65;101329.84;95168;1183;94968;-69
2021/09/08 07:34:32;;;;;;;22.70;14.10;;;;;;;18.10;70.17;101333.52;95173;1183;81020;-71
2021/09/08 07:36:40;;;;;;;21.70;13.70;;;;;;;18.23;69.89;101336.04;95218;1183;81532;-72
2021/09/08 07:38:49;;;;;;;19.20;13.20;;;;;;;18.34;69.88;101333.40;95214;1183;98884;-71
2021/09/08 07:40:57;;;;;;;15.60;13.50;;;;;;;18.39;69.76;101330.29;95225;1182;87545;-70
2021/09/08 07:43:04;;;;;;;20.30;14.20;;;;;;;18.47;69.83;101329.89;95230;1183;93371;-69
2021/09/08 07:45:14;;;;;;;21.30;12.90;;;;;;;18.49;69.76;101331.75;95230;1183;78275;-72
2021/09/08 07:47:21;;;;;;;16.80;13.20;;;;;;;18.58;69.62;101332.38;95252;1183;81835;-73
2021/09/08 07:49:32;;;;;;;19.70;14.10;;;;;;;18.47;68.71;101331.74;95209;1182;98827;-72
2021/09/08 07:51:42;;;;;;;18.40;13.90;;;;;;;18.48;68.76;101330.52;95177;1181;88269;-72
2021/09/08 07:53:50;;;;;;;21.10;13.90;;;;;;;18.60;68.86;101328.54;95223;1183;92840;-68
2021/09/08 07:55:58;;;;;;;19.40;13.20;;;;;;;18.76;68.89;101325.27;95259;1183;79180;-72
2021/09/08 07:58:07;;;;;;;21.30;14.00;;;;;;;19.11;68.66;101326.77;95229;1183;81616;-72
2021/09/08 08:00:17;;;;;;;21.70;13.70;;;;;;;19.65;67.95;101325.25;95237;1183;97902;-67
2021/09/08 08:02:25;;;;;;;22.70;13.40;;;;;;;20.62;67.45;101322.58;95254;1182;87763;-66
2021/09/08 08:04:35;;;;;;;18.70;13.10;;;;;;;21.60;66.36;101325.47;95228;1183;94038;-66
2021/09/08 08:06:44;;;;;;;16.10;12.20;;;;;;;23.07;65.05;101326.99;95258;1183;78361;-66
2021/09/08 08:08:55;;;;;;;17.70;12.40;;;;;;;24.73;63.73;101320.41;95291;1183;81172;-71
2021/09/08 08:11:03;;;;;;;17.10;13.10;;;;;;;26.27;61.46;101315.77;95268;1183;99339;-67
2021/09/08 08:13:14;;;;;;;19.10;11.70;;;;;;;27.31;59.43;101317.35;95278;1183;87732;-67
2021/09/08 08:15:22;;;;;;;14.80;11.80;;;;;;;28.29;57.12;101312.91;95214;1183;92194;-68
2021/09/08 08:17:30;;;;;;;20.10;11.50;;;;;;;28.95;55.67;101310.90;95235;1183;79754;-71
2021/09/08 08:19:37;;;;;;;14.20;11.40;;;;;;;29.79;54.40;101310.80;95257;1183;80596;-67
2021/09/08 08:21:48;;;;;;;14.50;10.70;;;;;;;30.61;52.85;101308.75;95208;1183;99366;-66
2021/09/08 08:23:56;;;;;;;14.40;11.50;;;;;;;30.88;50.92;101309.43;95268;1183;87831;-67
2021/09/08 08:26:03;;;;;;;17.40;11.10;;;;;;;31.36;48.89;101312.91;95183;1183;94671;-67
2021/09/08 08:28:11;;;;;;;14.00;10.30;;;;;;;31.72;47.76;101312.44;95215;1183;79260;-68
2021/09/08 08:30:22;;;;;;;16.80;11.60;;;;;;;32.11;46.47;101308.30;95238;1182;82944;-67
2021/09/08 08:32:32;;;;;;;14.40;11.40;;;;;;;32.27;45.03;101309.35;95234;1183;98265;-68
2021/09/08 08:34:43;;;;;;;15.80;10.90;;;;;;;32.38;44.21;101308.34;95258;1183;87503;-67
2021/09/08 08:36:51;;;;;;;13.90;10.80;;;;;;;32.20;42.95;101306.51;95194;1183;93800;-67
2021/09/08 08:38:59;;;;;;;15.90;11.20;;;;;;;32.13;42.46;101310.93;95203;1182;79225;-67
2021/09/08 08:41:06;;;;;;;16.00;11.10;;;;;;;32.61;41.49;101307.72;95292;1183;82337;-66
2021/09/08 08:43:14;;;;;;;14.20;10.80;;;;;;;32.42;41.10;101308.37;95270;1183;98041;-66
2021/09/08 08:45:22;;;;;;;13.40;10.90;;;;;;;32.45;40.40;101308.14;95231;1183;87873;-67
2021/09/08 08:47:30;;;;;;;15.60;11.40;;;;;;;32.38;39.54;101310.19;95251;1182;94769;-68
2021/09/08 08:49:38;;;;;;;15.20;10.60;;;;;;;32.40;39.02;101310.02;95261;1182;81364;-67
2021/09/08 08:51:46;;;;;;;14.60;10.90;;;;;;;32.64;39.07;101307.27;95229;1183;82596;-67
2021/09/08 08:53:56;;;;;;;16.10;12.00;;;;;;;32.85;38.23;101309.86;95261;1183;98753;-67
2021/09/08 08:56:04;;;;;;;14.80;12.30;;;;;;;32.22;37.60;101316.77;95277;1183;88397;-66
2021/09/08 08:58:12;;;;;;;18.50;11.60;;;;;;;31.69;37.08;101314.27;95258;1183;92688;-66
2021/09/08 09:00:22;;;;;;;13.90;10.90;;;;;;;31.71;37.82;101315.92;95197;1182;79994;-67
2021/09/08 09:02:33;;;;;;;11.80;10.40;;;;;;;31.85;37.38;101313.09;95136;1183;82000;-67
2021/09/08 09:04:41;;;;;;;15.90;11.20;;;;;;;32.10;37.95;101309.60;95259;1183;98665;-67
2021/09/08 09:06:52;;;;;;;14.00;11.10;;;;;;;32.24;37.95;101307.56;95286;1182;87654;-66
2021/09/08 09:09:11;;;;;;;14.70;10.60;;;;;;;32.08;36.79;101307.41;95296;1182;93161;-68
2021/09/08 09:11:19;;;;;;;14.60;10.50;;;;;;;32.08;37.01;101308.08;95255;1183;79040;-67
2021/09/08 09:13:35;;;;;;;12.30;10.60;;;;;;;32.26;36.68;101302.72;95279;1183;81188;-67
2021/09/08 09:15:42;;;;;;;14.10;10.60;;;;;;;32.46;36.63;101302.80;95260;1183;98002;-65
2021/09/08 09:17:54;;;;;;;14.10;10.50;;;;;;;32.27;36.60;101301.15;95245;1182;87875;-67
2021/09/08 09:20:06;;;;;;;18.30;11.00;;;;;;;32.60;36.70;101298.02;95257;1183;93986;-71
2021/09/08 09:22:13;;;;;;;15.00;9.60;;;;;;;33.01;36.14;101298.67;95223;1182;78056;-67
2021/09/08 09:24:21;;;;;;;13.10;10.00;;;;;;;33.14;35.59;101299.94;95245;1183;81861;-67
2021/09/08 09:26:31;;;;;;;12.50;10.90;;;;;;;32.57;34.44;101303.31;95227;1183;98861;-68
2021/09/08 09:28:45;;;;;;;11.70;9.90;;;;;;;32.32;34.62;101305.82;95238;1181;88505;-66
2021/09/08 09:30:52;;;;;;;14.60;9.70;;;;;;;31.63;34.93;101311.04;95224;1181;93545;-65
2021/09/08 09:33:02;;;;;;;12.60;10.00;;;;;;;31.71;35.12;101306.02;95177;1183;80155;-66
2021/09/08 09:35:14;;;;;;;10.40;9.00;;;;;;;31.30;35.35;101307.30;95168;1182;81433;-66
2021/09/08 09:37:22;;;;;;;12.30;9.80;;;;;;;30.83;35.97;101302.58;95208;1183;99036;-66
2021/09/08 09:39:34;;;;;;;13.30;9.60;;;;;;;30.77;36.66;101305.33;95210;1182;87435;-66
2021/09/08 09:42:31;;;;;;;17.10;10.40;;;;;;;30.30;36.56;101304.70;95212;1183;94758;-66
2021/09/08 09:44:41;;;;;;;11.50;9.20;;;;;;;29.74;37.02;101300.71;95286;1182;79884;-67
2021/09/08 09:46:57;;;;;;;12.40;10.20;;;;;;;28.96;36.68;101299.55;95091;1183;83090;-66
2021/09/08 09:49:05;;;;;;;11.90;9.80;;;;;;;28.23;37.31;101292.38;95272;1183;98450;-66
2021/09/08 09:51:15;;;;;;;11.70;9.70;;;;;;;27.68;38.21;101296.20;95203;1183;87538;-67
2021/09/08 09:53:23;;;;;;;11.90;9.70;;;;;;;27.15;38.98;101296.44;95262;1183;94433;-67
2021/09/08 09:55:31;;;;;;;13.60;9.10;;;;;;;26.70;39.76;101291.95;95254;1183;77992;-65